OCN134 EDDF-HKMO
Flight info
| Callsign | OCN134 |
|---|---|
| Flight time | N/A |
| Altitude | 37000 |
| Route | CINDY6F CINDY Z74 LAMPU DCT NOMBO Y161 MAH DCT VAVOR DCT RADIZ DCT NEMEK DCT GLOMY DCT PETAK DCT DIMIS UL604 SALUN N705 BOPIX N710 TAKRI P751 LXR M999 DEDLU/N0464F390 M999 JDW G650 RASKA/N0471F380 G650 KONET M308 RANSO/N0464F400 M308 GETOL/N0463F390 T129 ALEMU/N0462F400 UN301 IBNOK IBNOK3A |
| Aircraft | A332/H-SDE2E3FGHIJ3J4J5LM1OP2RWXYZ/LB1D1 |
Departure
| Time | 2026-05-07 00:27 |
|---|---|
| Airport | Frankfurt Main Airport (EDDF) |
Arrival
| Time | N/A |
|---|---|
| Airport | Moi International Airport (HKMO) |
| Time | Latitude | Longitude | Altitude | Speed | Heading |
|---|---|---|---|---|---|
| 2026-05-06 23:54 | 50.04887 | 8.57974 | 367 ft | 0 kts | 12° |
| 2026-05-07 00:17 | 50.04871 | 8.57968 | 370 ft | 4 kts | 14° |
| 2026-05-07 00:17 | 50.04848 | 8.57960 | 362 ft | 4 kts | 29° |
| 2026-05-07 00:17 | 50.04833 | 8.57932 | 361 ft | 4 kts | 83° |
| 2026-05-07 00:17 | 50.04835 | 8.57892 | 361 ft | 4 kts | 104° |
| 2026-05-07 00:18 | 50.04843 | 8.57852 | 368 ft | 4 kts | 112° |
| 2026-05-07 00:18 | 50.04850 | 8.57827 | 361 ft | 4 kts | 114° |
| 2026-05-07 00:18 | 50.04852 | 8.57820 | 361 ft | 4 kts | 113° |
| 2026-05-07 00:21 | 50.04851 | 8.57822 | 361 ft | 1 kts | 113° |
| 2026-05-07 00:21 | 50.04848 | 8.57832 | 361 ft | 1 kts | 113° |
| 2026-05-07 00:22 | 50.04839 | 8.57865 | 370 ft | 6 kts | 119° |
| 2026-05-07 00:22 | 50.04794 | 8.57912 | 367 ft | 9 kts | 160° |
| 2026-05-07 00:22 | 50.04736 | 8.57944 | 367 ft | 9 kts | 160° |
| 2026-05-07 00:22 | 50.04666 | 8.57984 | 370 ft | 12 kts | 160° |
| 2026-05-07 00:23 | 50.04593 | 8.58027 | 372 ft | 10 kts | 155° |
| 2026-05-07 00:23 | 50.04566 | 8.58094 | 368 ft | 7 kts | 96° |
| 2026-05-07 00:23 | 50.04577 | 8.58164 | 368 ft | 4 kts | 71° |
| 2026-05-07 00:23 | 50.04589 | 8.58216 | 374 ft | 6 kts | 70° |
| 2026-05-07 00:24 | 50.04607 | 8.58290 | 371 ft | 9 kts | 69° |
| 2026-05-07 00:24 | 50.04634 | 8.58403 | 374 ft | 14 kts | 69° |
| 2026-05-07 00:24 | 50.04655 | 8.58537 | 377 ft | 10 kts | 112° |
| 2026-05-07 00:24 | 50.04597 | 8.58588 | 376 ft | 9 kts | 160° |
| 2026-05-07 00:25 | 50.04541 | 8.58619 | 378 ft | 8 kts | 160° |
| 2026-05-07 00:25 | 50.04493 | 8.58605 | 377 ft | 7 kts | 226° |
| 2026-05-07 00:25 | 50.04475 | 8.58538 | 374 ft | 7 kts | 250° |
| 2026-05-07 00:25 | 50.04458 | 8.58467 | 377 ft | 9 kts | 249° |
| 2026-05-07 00:26 | 50.04374 | 8.58112 | 372 ft | 64 kts | 250° |
| 2026-05-07 00:26 | 50.04155 | 8.57196 | 375 ft | 115 kts | 250° |
| 2026-05-07 00:26 | 50.03822 | 8.55803 | 362 ft | 158 kts | 249° |
| 2026-05-07 00:26 | 50.03407 | 8.54114 | 721 ft | 168 kts | 251° |
| 2026-05-07 00:27 | 50.02992 | 8.52386 | 1264 ft | 173 kts | 251° |
| 2026-05-07 00:27 | 50.02314 | 8.50750 | 1641 ft | 192 kts | 226° |
| 2026-05-07 00:27 | 50.01090 | 8.49658 | 1842 ft | 214 kts | 205° |
| 2026-05-07 00:27 | 49.99610 | 8.49126 | 2239 ft | 224 kts | 182° |
| 2026-05-07 00:28 | 49.98100 | 8.49735 | 2750 ft | 229 kts | 149° |
| 2026-05-07 00:28 | 49.97005 | 8.51490 | 3265 ft | 228 kts | 123° |
| 2026-05-07 00:28 | 49.96200 | 8.53615 | 3731 ft | 231 kts | 118° |
| 2026-05-07 00:28 | 49.95413 | 8.55887 | 3935 ft | 248 kts | 118° |
| 2026-05-07 00:29 | 49.94579 | 8.58322 | 4190 ft | 263 kts | 116° |
| 2026-05-07 00:29 | 49.94057 | 8.61096 | 4629 ft | 272 kts | 97° |
| 2026-05-07 00:30 | 49.93044 | 8.69813 | 6520 ft | 280 kts | 127° |
| 2026-05-07 00:30 | 49.91669 | 8.71916 | 7184 ft | 279 kts | 144° |
| 2026-05-07 00:30 | 49.90111 | 8.73675 | 7868 ft | 281 kts | 147° |
| 2026-05-07 00:30 | 49.88597 | 8.75624 | 8526 ft | 287 kts | 133° |
| 2026-05-07 00:31 | 49.87444 | 8.78181 | 9230 ft | 292 kts | 122° |
| 2026-05-07 00:31 | 49.86432 | 8.80931 | 9854 ft | 295 kts | 121° |
| 2026-05-07 00:31 | 49.85418 | 8.83764 | 10233 ft | 308 kts | 121° |
| 2026-05-07 00:31 | 49.84345 | 8.86751 | 10445 ft | 326 kts | 120° |
| 2026-05-07 00:32 | 49.83209 | 8.89899 | 10666 ft | 343 kts | 120° |
| 2026-05-07 00:32 | 49.82015 | 8.93198 | 10917 ft | 358 kts | 120° |
| 2026-05-07 00:32 | 49.80779 | 8.96603 | 11382 ft | 365 kts | 120° |
| 2026-05-07 00:32 | 49.79530 | 9.00037 | 11961 ft | 368 kts | 120° |
| 2026-05-07 00:33 | 49.78272 | 9.03494 | 12575 ft | 370 kts | 120° |
| 2026-05-07 00:33 | 49.77008 | 9.06978 | 13188 ft | 372 kts | 119° |
| 2026-05-07 00:33 | 49.75999 | 9.10651 | 13887 ft | 372 kts | 108° |
| 2026-05-07 00:33 | 49.75309 | 9.14524 | 14384 ft | 376 kts | 105° |
| 2026-05-07 00:34 | 49.74454 | 9.18356 | 14838 ft | 378 kts | 118° |
| 2026-05-07 00:34 | 49.73065 | 9.21800 | 15347 ft | 379 kts | 127° |
| 2026-05-07 00:34 | 49.71433 | 9.25020 | 15839 ft | 381 kts | 131° |
| 2026-05-07 00:34 | 49.69684 | 9.28107 | 16335 ft | 383 kts | 133° |
| 2026-05-07 00:35 | 49.67878 | 9.31159 | 16817 ft | 386 kts | 134° |
| 2026-05-07 00:35 | 49.66056 | 9.34219 | 17303 ft | 389 kts | 134° |
| 2026-05-07 00:35 | 49.64232 | 9.37312 | 17795 ft | 391 kts | 133° |
| 2026-05-07 00:35 | 49.62304 | 9.40311 | 18237 ft | 393 kts | 141° |
| 2026-05-07 00:36 | 49.60118 | 9.42853 | 18620 ft | 395 kts | 146° |
| 2026-05-07 00:36 | 49.57819 | 9.45200 | 19004 ft | 398 kts | 149° |
| 2026-05-07 00:36 | 49.55458 | 9.47433 | 19439 ft | 399 kts | 150° |
| 2026-05-07 00:36 | 49.53065 | 9.49609 | 19866 ft | 401 kts | 150° |
| 2026-05-07 00:37 | 49.50648 | 9.51771 | 20250 ft | 403 kts | 151° |
| 2026-05-07 00:37 | 49.48220 | 9.53939 | 20679 ft | 405 kts | 150° |
| 2026-05-07 00:37 | 49.45780 | 9.56129 | 21046 ft | 407 kts | 150° |
| 2026-05-07 00:37 | 49.43326 | 9.58345 | 21399 ft | 410 kts | 150° |
| 2026-05-07 00:38 | 49.40859 | 9.60579 | 21768 ft | 413 kts | 150° |
| 2026-05-07 00:38 | 49.38376 | 9.62829 | 22136 ft | 415 kts | 150° |
| 2026-05-07 00:38 | 49.35895 | 9.65120 | 22485 ft | 418 kts | 147° |
| 2026-05-07 00:38 | 49.33568 | 9.67806 | 22829 ft | 420 kts | 139° |
| 2026-05-07 00:39 | 49.31397 | 9.70793 | 23287 ft | 420 kts | 137° |
| 2026-05-07 00:39 | 49.29307 | 9.73853 | 23608 ft | 422 kts | 135° |
| 2026-05-07 00:39 | 49.27216 | 9.77028 | 23945 ft | 423 kts | 135° |
| 2026-05-07 00:39 | 49.25141 | 9.80224 | 24265 ft | 424 kts | 135° |
| 2026-05-07 00:40 | 49.23054 | 9.83444 | 24557 ft | 427 kts | 137° |
| 2026-05-07 00:40 | 49.20957 | 9.86673 | 24832 ft | 429 kts | 137° |
| 2026-05-07 00:40 | 49.18846 | 9.89907 | 25135 ft | 431 kts | 137° |
| 2026-05-07 00:40 | 49.16717 | 9.93148 | 25419 ft | 433 kts | 137° |
| 2026-05-07 00:41 | 49.14578 | 9.96392 | 25715 ft | 434 kts | 137° |
| 2026-05-07 00:41 | 49.12427 | 9.99647 | 26020 ft | 436 kts | 137° |
| 2026-05-07 00:41 | 49.10265 | 10.02912 | 26301 ft | 438 kts | 137° |
| 2026-05-07 00:41 | 49.08095 | 10.06188 | 26564 ft | 440 kts | 138° |
| 2026-05-07 00:42 | 49.05920 | 10.09445 | 26998 ft | 437 kts | 140° |
| 2026-05-07 00:42 | 49.03715 | 10.12639 | 27313 ft | 438 kts | 140° |
| 2026-05-07 00:42 | 49.01483 | 10.15805 | 27562 ft | 440 kts | 141° |
| 2026-05-07 00:42 | 48.99228 | 10.18970 | 27788 ft | 442 kts | 142° |
| 2026-05-07 00:43 | 48.96955 | 10.22150 | 27995 ft | 445 kts | 142° |
| 2026-05-07 00:43 | 48.94677 | 10.25340 | 28270 ft | 446 kts | 142° |
| 2026-05-07 00:43 | 48.92392 | 10.28550 | 28504 ft | 448 kts | 142° |
| 2026-05-07 00:43 | 48.90102 | 10.31774 | 28732 ft | 450 kts | 142° |
| 2026-05-07 00:44 | 48.87800 | 10.35017 | 28970 ft | 452 kts | 142° |
| 2026-05-07 00:44 | 48.85494 | 10.38263 | 29213 ft | 453 kts | 142° |
| 2026-05-07 00:44 | 48.83179 | 10.41531 | 29468 ft | 456 kts | 142° |
| 2026-05-07 00:44 | 48.80917 | 10.44921 | 29707 ft | 458 kts | 140° |
| 2026-05-07 00:45 | 48.78706 | 10.48414 | 29907 ft | 461 kts | 139° |
| 2026-05-07 00:45 | 48.76510 | 10.51968 | 30069 ft | 463 kts | 139° |
| 2026-05-07 00:45 | 48.74310 | 10.55550 | 30226 ft | 465 kts | 139° |
| 2026-05-07 00:45 | 48.72096 | 10.59144 | 30411 ft | 467 kts | 139° |
| 2026-05-07 00:46 | 48.69874 | 10.62730 | 30605 ft | 468 kts | 139° |
| 2026-05-07 00:46 | 48.67643 | 10.66307 | 30855 ft | 468 kts | 139° |
| 2026-05-07 00:46 | 48.65409 | 10.69871 | 31174 ft | 466 kts | 139° |
| 2026-05-07 00:46 | 48.63182 | 10.73414 | 31462 ft | 464 kts | 139° |
| 2026-05-07 00:47 | 48.60958 | 10.76942 | 31737 ft | 463 kts | 139° |
| 2026-05-07 00:47 | 48.58767 | 10.80413 | 31996 ft | 462 kts | 138° |
| 2026-05-07 00:47 | 48.56529 | 10.83975 | 32263 ft | 461 kts | 138° |
| 2026-05-07 00:47 | 48.54352 | 10.87451 | 32438 ft | 462 kts | 138° |
| 2026-05-07 00:48 | 48.52152 | 10.90970 | 32675 ft | 461 kts | 139° |
| 2026-05-07 00:48 | 48.49958 | 10.94476 | 32947 ft | 459 kts | 139° |
| 2026-05-07 00:48 | 48.47759 | 10.97960 | 33180 ft | 458 kts | 139° |
| 2026-05-07 00:48 | 48.45561 | 11.01405 | 33401 ft | 458 kts | 139° |
| 2026-05-07 00:49 | 48.43341 | 11.04865 | 33636 ft | 457 kts | 139° |
| 2026-05-07 00:49 | 48.41126 | 11.08305 | 33868 ft | 457 kts | 139° |
| 2026-05-07 00:49 | 48.38917 | 11.11733 | 34064 ft | 456 kts | 139° |
| 2026-05-07 00:49 | 48.36706 | 11.15158 | 34244 ft | 456 kts | 139° |
| 2026-05-07 00:50 | 48.34498 | 11.18578 | 34411 ft | 456 kts | 139° |
| 2026-05-07 00:50 | 48.32290 | 11.21992 | 34569 ft | 456 kts | 139° |
| 2026-05-07 00:50 | 48.30078 | 11.25414 | 34692 ft | 457 kts | 139° |
| 2026-05-07 00:50 | 48.27885 | 11.28877 | 34842 ft | 459 kts | 136° |
| 2026-05-07 00:51 | 48.25924 | 11.32681 | 35036 ft | 463 kts | 128° |
| 2026-05-07 00:51 | 48.24189 | 11.36760 | 35207 ft | 464 kts | 127° |
| 2026-05-07 00:51 | 48.22524 | 11.40914 | 35382 ft | 465 kts | 126° |
| 2026-05-07 00:51 | 48.20899 | 11.45103 | 35533 ft | 465 kts | 125° |
| 2026-05-07 00:52 | 48.19289 | 11.49310 | 35702 ft | 464 kts | 125° |
| 2026-05-07 00:52 | 48.17684 | 11.53507 | 35832 ft | 464 kts | 125° |
| 2026-05-07 00:52 | 48.16077 | 11.57696 | 35981 ft | 464 kts | 125° |
| 2026-05-07 00:52 | 48.14466 | 11.61873 | 36107 ft | 463 kts | 126° |
| 2026-05-07 00:53 | 48.12850 | 11.66042 | 36265 ft | 462 kts | 126° |
| 2026-05-07 00:53 | 48.11234 | 11.70193 | 36418 ft | 461 kts | 126° |
| 2026-05-07 00:53 | 48.09613 | 11.74339 | 36541 ft | 462 kts | 126° |
| 2026-05-07 00:53 | 48.07991 | 11.78481 | 36674 ft | 462 kts | 126° |
| 2026-05-07 00:54 | 48.06370 | 11.82616 | 36813 ft | 461 kts | 126° |
| 2026-05-07 00:54 | 48.04747 | 11.86753 | 36912 ft | 461 kts | 126° |
| 2026-05-07 00:54 | 48.01502 | 11.95006 | 36925 ft | 460 kts | 126° |
| 2026-05-07 00:55 | 47.98256 | 12.03232 | 36929 ft | 461 kts | 126° |
| 2026-05-07 00:55 | 47.94971 | 12.11458 | 36926 ft | 460 kts | 129° |
| 2026-05-07 00:56 | 47.90860 | 12.18558 | 36936 ft | 449 kts | 142° |
| 2026-05-07 00:56 | 47.86179 | 12.24686 | 36933 ft | 448 kts | 145° |
| 2026-05-07 00:57 | 47.81393 | 12.30614 | 36939 ft | 448 kts | 145° |
| 2026-05-07 00:57 | 47.76598 | 12.36528 | 36928 ft | 448 kts | 145° |
| 2026-05-07 00:58 | 47.71840 | 12.42426 | 36936 ft | 450 kts | 145° |
| 2026-05-07 00:58 | 47.67029 | 12.48395 | 36939 ft | 451 kts | 145° |
| 2026-05-07 00:59 | 47.59906 | 12.57533 | 36940 ft | 453 kts | 142° |
| 2026-05-07 01:00 | 47.55362 | 12.64004 | 36913 ft | 453 kts | 141° |
| 2026-05-07 01:00 | 47.50834 | 12.70506 | 36934 ft | 454 kts | 141° |
| 2026-05-07 01:01 | 47.46276 | 12.76975 | 36948 ft | 455 kts | 142° |
| 2026-05-07 01:01 | 47.41690 | 12.83428 | 36939 ft | 456 kts | 142° |
| 2026-05-07 01:02 | 47.37097 | 12.89863 | 36928 ft | 455 kts | 142° |
| 2026-05-07 01:02 | 47.32503 | 12.96286 | 36906 ft | 455 kts | 142° |
| 2026-05-07 01:03 | 47.27908 | 13.02700 | 36939 ft | 455 kts | 142° |
| 2026-05-07 01:03 | 47.23322 | 13.09087 | 36942 ft | 453 kts | 142° |
| 2026-05-07 01:04 | 47.18735 | 13.15456 | 36937 ft | 453 kts | 142° |
| 2026-05-07 01:04 | 47.14144 | 13.21813 | 36955 ft | 453 kts | 142° |
| 2026-05-07 01:05 | 47.10331 | 13.27080 | 36960 ft | 454 kts | 142° |
| 2026-05-07 01:05 | 47.05738 | 13.33415 | 36942 ft | 452 kts | 142° |
| 2026-05-07 01:06 | 47.01151 | 13.39720 | 36947 ft | 452 kts | 142° |
| 2026-05-07 01:06 | 46.96550 | 13.46029 | 36948 ft | 455 kts | 142° |
| 2026-05-07 01:07 | 46.91927 | 13.52352 | 36958 ft | 456 kts | 143° |
| 2026-05-07 01:07 | 46.87289 | 13.58682 | 36912 ft | 455 kts | 143° |
| 2026-05-07 01:08 | 46.82657 | 13.64991 | 36951 ft | 455 kts | 143° |
| 2026-05-07 01:08 | 46.78016 | 13.71296 | 36947 ft | 455 kts | 143° |
| 2026-05-07 01:09 | 46.73380 | 13.77583 | 36974 ft | 455 kts | 143° |
| 2026-05-07 01:09 | 46.68718 | 13.83878 | 36973 ft | 458 kts | 143° |
| 2026-05-07 01:10 | 46.64048 | 13.90169 | 36948 ft | 456 kts | 142° |
| 2026-05-07 01:10 | 46.59406 | 13.96417 | 36955 ft | 453 kts | 142° |
| 2026-05-07 01:11 | 46.54778 | 14.02625 | 36960 ft | 453 kts | 143° |
| 2026-05-07 01:11 | 46.50146 | 14.08820 | 36941 ft | 453 kts | 142° |
| 2026-05-07 01:12 | 46.45529 | 14.14983 | 36944 ft | 455 kts | 142° |
| 2026-05-07 01:12 | 46.40867 | 14.21192 | 36940 ft | 454 kts | 143° |
| 2026-05-07 01:13 | 46.36242 | 14.27344 | 36948 ft | 448 kts | 143° |
| 2026-05-07 01:13 | 46.31654 | 14.33428 | 36940 ft | 447 kts | 143° |
| 2026-05-07 01:14 | 46.27059 | 14.39495 | 36938 ft | 447 kts | 143° |
| 2026-05-07 01:14 | 46.22460 | 14.45561 | 36938 ft | 448 kts | 143° |
| 2026-05-07 01:15 | 46.17859 | 14.51616 | 36936 ft | 448 kts | 144° |
| 2026-05-07 01:15 | 46.13230 | 14.57686 | 36940 ft | 450 kts | 144° |
| 2026-05-07 01:16 | 46.08601 | 14.63772 | 36948 ft | 450 kts | 144° |
| 2026-05-07 01:16 | 46.03962 | 14.69828 | 36950 ft | 450 kts | 144° |
| 2026-05-07 01:17 | 45.99316 | 14.75880 | 36944 ft | 450 kts | 143° |
| 2026-05-07 01:17 | 45.94680 | 14.81907 | 36956 ft | 451 kts | 144° |
| 2026-05-07 01:18 | 45.89990 | 14.87978 | 36952 ft | 457 kts | 144° |
| 2026-05-07 01:18 | 45.85259 | 14.94103 | 36954 ft | 458 kts | 144° |
| 2026-05-07 01:19 | 45.80566 | 15.00173 | 36957 ft | 457 kts | 144° |
| 2026-05-07 01:19 | 45.75835 | 15.06270 | 36953 ft | 457 kts | 144° |
| 2026-05-07 01:20 | 45.71104 | 15.12348 | 36950 ft | 457 kts | 144° |
| 2026-05-07 01:20 | 45.66364 | 15.18425 | 36951 ft | 458 kts | 144° |
| 2026-05-07 01:21 | 45.61619 | 15.24494 | 36957 ft | 458 kts | 144° |
| 2026-05-07 01:21 | 45.56871 | 15.30539 | 36956 ft | 457 kts | 144° |
| 2026-05-07 01:22 | 45.52065 | 15.36483 | 36955 ft | 457 kts | 146° |
| 2026-05-07 01:22 | 45.47246 | 15.42370 | 36954 ft | 456 kts | 146° |
| 2026-05-07 01:23 | 45.42429 | 15.48242 | 36955 ft | 456 kts | 146° |
| 2026-05-07 01:23 | 45.37613 | 15.54112 | 36954 ft | 456 kts | 146° |
| 2026-05-07 01:24 | 45.32800 | 15.59977 | 36960 ft | 456 kts | 146° |
| 2026-05-07 01:24 | 45.27981 | 15.65833 | 36957 ft | 456 kts | 146° |
| 2026-05-07 01:25 | 45.23165 | 15.71677 | 36963 ft | 455 kts | 146° |
| 2026-05-07 01:25 | 45.18331 | 15.77510 | 36962 ft | 457 kts | 146° |
| 2026-05-07 01:26 | 45.13491 | 15.83349 | 36958 ft | 458 kts | 146° |
| 2026-05-07 01:26 | 45.08638 | 15.89188 | 36965 ft | 457 kts | 146° |
| 2026-05-07 01:27 | 45.03794 | 15.95010 | 36958 ft | 457 kts | 146° |
| 2026-05-07 01:27 | 44.98940 | 16.00819 | 36964 ft | 457 kts | 146° |
| 2026-05-07 01:28 | 44.94123 | 16.06580 | 36966 ft | 457 kts | 146° |
| 2026-05-07 01:28 | 44.89234 | 16.12413 | 36963 ft | 457 kts | 146° |
| 2026-05-07 01:29 | 44.84411 | 16.18155 | 36943 ft | 458 kts | 146° |
| 2026-05-07 01:29 | 44.79541 | 16.23941 | 36965 ft | 458 kts | 146° |
| 2026-05-07 01:30 | 44.74669 | 16.29710 | 36972 ft | 458 kts | 146° |
| 2026-05-07 01:30 | 44.69790 | 16.35475 | 36971 ft | 458 kts | 146° |
| 2026-05-07 01:31 | 44.64913 | 16.41225 | 36969 ft | 457 kts | 146° |
| 2026-05-07 01:31 | 44.60036 | 16.46961 | 36987 ft | 458 kts | 146° |
| 2026-05-07 01:32 | 44.55138 | 16.52705 | 36979 ft | 459 kts | 146° |
| 2026-05-07 01:32 | 44.50241 | 16.58440 | 36981 ft | 459 kts | 146° |
| 2026-05-07 01:33 | 44.45329 | 16.64178 | 36973 ft | 460 kts | 146° |
| 2026-05-07 01:33 | 44.40414 | 16.69910 | 36985 ft | 460 kts | 146° |
| 2026-05-07 01:34 | 44.35492 | 16.75641 | 36995 ft | 460 kts | 146° |
| 2026-05-07 01:34 | 44.30578 | 16.81346 | 36997 ft | 459 kts | 146° |
| 2026-05-07 01:35 | 44.25659 | 16.87039 | 37007 ft | 460 kts | 146° |
| 2026-05-07 01:35 | 44.20736 | 16.92732 | 37011 ft | 460 kts | 146° |
| 2026-05-07 01:36 | 44.15810 | 16.98408 | 37018 ft | 460 kts | 146° |
| 2026-05-07 01:36 | 44.10876 | 17.04078 | 37023 ft | 460 kts | 146° |
| 2026-05-07 01:37 | 44.05943 | 17.09742 | 37020 ft | 459 kts | 146° |
| 2026-05-07 01:37 | 44.01055 | 17.15338 | 37033 ft | 458 kts | 146° |
| 2026-05-07 01:38 | 43.96098 | 17.21002 | 37015 ft | 458 kts | 146° |
| 2026-05-07 01:38 | 43.91201 | 17.26586 | 37035 ft | 460 kts | 146° |
| 2026-05-07 01:39 | 43.86258 | 17.32209 | 37041 ft | 460 kts | 146° |
| 2026-05-07 01:39 | 43.81320 | 17.37813 | 37044 ft | 458 kts | 146° |
| 2026-05-07 01:40 | 43.76395 | 17.43392 | 37045 ft | 457 kts | 147° |
| 2026-05-07 01:40 | 43.71464 | 17.48955 | 37048 ft | 458 kts | 146° |
| 2026-05-07 01:41 | 43.66523 | 17.54524 | 37043 ft | 459 kts | 146° |
| 2026-05-07 01:41 | 43.61578 | 17.60089 | 37042 ft | 459 kts | 146° |
| 2026-05-07 01:42 | 43.56633 | 17.65647 | 37045 ft | 458 kts | 147° |
| 2026-05-07 01:42 | 43.51526 | 17.70839 | 37054 ft | 455 kts | 150° |
| 2026-05-07 01:43 | 43.46301 | 17.75747 | 37040 ft | 455 kts | 151° |
| 2026-05-07 01:43 | 43.41062 | 17.80647 | 37053 ft | 456 kts | 151° |
| 2026-05-07 01:44 | 43.35842 | 17.85588 | 37074 ft | 456 kts | 151° |
| 2026-05-07 01:44 | 43.30619 | 17.90545 | 37075 ft | 455 kts | 151° |
| 2026-05-07 01:45 | 43.25397 | 17.95477 | 37073 ft | 457 kts | 150° |
| 2026-05-07 01:45 | 43.20209 | 18.00399 | 37071 ft | 456 kts | 151° |
| 2026-05-07 01:46 | 43.14990 | 18.05323 | 37071 ft | 455 kts | 150° |
| 2026-05-07 01:46 | 43.09774 | 18.10227 | 37068 ft | 455 kts | 150° |
| 2026-05-07 01:47 | 43.04550 | 18.15129 | 37076 ft | 455 kts | 150° |
| 2026-05-07 01:47 | 42.99328 | 18.20027 | 37068 ft | 455 kts | 150° |
| 2026-05-07 01:48 | 42.94106 | 18.24918 | 37060 ft | 455 kts | 150° |
| 2026-05-07 01:48 | 42.88884 | 18.29796 | 37084 ft | 455 kts | 150° |
| 2026-05-07 01:49 | 42.83659 | 18.34661 | 37068 ft | 455 kts | 150° |
| 2026-05-07 01:49 | 42.78430 | 18.39514 | 37066 ft | 455 kts | 150° |
| 2026-05-07 01:50 | 42.73204 | 18.44363 | 37077 ft | 455 kts | 150° |
| 2026-05-07 01:50 | 42.67958 | 18.49221 | 37076 ft | 457 kts | 150° |
| 2026-05-07 01:51 | 42.62689 | 18.54087 | 37075 ft | 458 kts | 150° |
| 2026-05-07 01:51 | 42.57421 | 18.58946 | 37097 ft | 458 kts | 150° |
| 2026-05-07 01:52 | 42.52148 | 18.63795 | 37101 ft | 458 kts | 150° |
| 2026-05-07 01:52 | 42.46876 | 18.68634 | 37095 ft | 458 kts | 150° |
| 2026-05-07 01:53 | 42.41597 | 18.73470 | 37101 ft | 458 kts | 150° |
| 2026-05-07 01:53 | 42.37206 | 18.77485 | 37090 ft | 458 kts | 150° |
| 2026-05-07 01:54 | 42.31917 | 18.82312 | 37092 ft | 460 kts | 150° |
| 2026-05-07 01:54 | 42.26608 | 18.87146 | 37092 ft | 460 kts | 150° |
| 2026-05-07 01:55 | 42.21299 | 18.91971 | 37100 ft | 460 kts | 150° |
| 2026-05-07 01:55 | 42.15991 | 18.96786 | 37093 ft | 460 kts | 150° |
| 2026-05-07 01:56 | 42.10675 | 19.01598 | 37101 ft | 460 kts | 150° |
| 2026-05-07 01:56 | 42.05362 | 19.06398 | 37107 ft | 460 kts | 151° |
| 2026-05-07 01:57 | 42.00044 | 19.11190 | 37091 ft | 460 kts | 151° |
| 2026-05-07 01:57 | 41.94717 | 19.15981 | 37098 ft | 462 kts | 150° |
| 2026-05-07 01:58 | 41.89359 | 19.20789 | 37098 ft | 463 kts | 151° |
| 2026-05-07 01:58 | 41.84005 | 19.25585 | 37098 ft | 462 kts | 151° |
| 2026-05-07 01:59 | 41.78657 | 19.30372 | 37101 ft | 462 kts | 151° |
| 2026-05-07 01:59 | 41.73232 | 19.34858 | 37112 ft | 461 kts | 154° |
| 2026-05-07 02:00 | 41.67661 | 19.39112 | 37112 ft | 461 kts | 155° |
| 2026-05-07 02:00 | 41.62089 | 19.43340 | 37105 ft | 461 kts | 155° |
| 2026-05-07 02:01 | 41.56519 | 19.47600 | 37113 ft | 461 kts | 155° |
| 2026-05-07 02:01 | 41.50947 | 19.51880 | 37103 ft | 462 kts | 154° |
| 2026-05-07 02:02 | 41.45373 | 19.56159 | 37103 ft | 462 kts | 154° |
| 2026-05-07 02:02 | 41.39803 | 19.60425 | 37103 ft | 462 kts | 154° |
| 2026-05-07 02:03 | 41.34219 | 19.64690 | 37106 ft | 462 kts | 154° |
| 2026-05-07 02:03 | 41.28643 | 19.68944 | 37100 ft | 462 kts | 154° |
| 2026-05-07 02:04 | 41.23057 | 19.73195 | 37102 ft | 462 kts | 154° |
| 2026-05-07 02:04 | 41.17470 | 19.77434 | 37103 ft | 463 kts | 154° |
| 2026-05-07 02:05 | 41.11880 | 19.81672 | 37104 ft | 463 kts | 154° |
| 2026-05-07 02:05 | 41.06267 | 19.85917 | 37108 ft | 465 kts | 154° |
| 2026-05-07 02:06 | 41.00637 | 19.90167 | 37101 ft | 466 kts | 154° |
| 2026-05-07 02:06 | 40.95006 | 19.94413 | 37114 ft | 466 kts | 155° |
| 2026-05-07 02:07 | 40.89368 | 19.98646 | 37112 ft | 465 kts | 155° |
| 2026-05-07 02:07 | 40.80927 | 20.04978 | 37108 ft | 465 kts | 154° |
| 2026-05-07 02:08 | 40.75284 | 20.09197 | 37115 ft | 466 kts | 154° |
| 2026-05-07 02:08 | 40.69678 | 20.13387 | 37114 ft | 466 kts | 154° |
| 2026-05-07 02:09 | 40.64020 | 20.17605 | 37102 ft | 468 kts | 154° |
| 2026-05-07 02:09 | 40.58330 | 20.21836 | 37119 ft | 473 kts | 154° |
| 2026-05-07 02:10 | 40.52600 | 20.26087 | 37118 ft | 473 kts | 155° |
| 2026-05-07 02:10 | 40.46868 | 20.30332 | 37119 ft | 472 kts | 154° |
| 2026-05-07 02:11 | 40.41143 | 20.34572 | 37117 ft | 472 kts | 155° |
| 2026-05-07 02:11 | 40.35412 | 20.38790 | 37108 ft | 472 kts | 155° |
| 2026-05-07 02:12 | 40.29682 | 20.43006 | 37112 ft | 472 kts | 155° |
| 2026-05-07 02:12 | 40.23955 | 20.47225 | 37115 ft | 472 kts | 155° |
| 2026-05-07 02:13 | 40.18202 | 20.51449 | 37118 ft | 477 kts | 155° |
| 2026-05-07 02:13 | 40.12402 | 20.55692 | 37121 ft | 478 kts | 155° |
| 2026-05-07 02:14 | 40.06594 | 20.59891 | 37119 ft | 477 kts | 157° |
| 2026-05-07 02:14 | 40.00631 | 20.63667 | 37122 ft | 476 kts | 159° |
| 2026-05-07 02:15 | 39.94608 | 20.67260 | 37126 ft | 476 kts | 160° |
| 2026-05-07 02:15 | 39.88599 | 20.70858 | 37128 ft | 476 kts | 159° |
| 2026-05-07 02:16 | 39.82591 | 20.74490 | 37127 ft | 477 kts | 159° |
| 2026-05-07 02:16 | 39.76578 | 20.78137 | 37129 ft | 477 kts | 159° |
| 2026-05-07 02:17 | 39.70558 | 20.81788 | 37129 ft | 477 kts | 158° |
| 2026-05-07 02:17 | 39.64663 | 20.85658 | 37131 ft | 479 kts | 156° |
| 2026-05-07 02:18 | 39.58778 | 20.89739 | 37127 ft | 480 kts | 156° |
| 2026-05-07 02:18 | 39.52886 | 20.93817 | 37126 ft | 480 kts | 156° |
| 2026-05-07 02:19 | 39.46980 | 20.97860 | 37127 ft | 480 kts | 156° |
| 2026-05-07 02:19 | 39.41073 | 21.01881 | 37115 ft | 480 kts | 156° |
| 2026-05-07 02:20 | 39.35161 | 21.05893 | 37118 ft | 481 kts | 156° |
| 2026-05-07 02:20 | 39.29226 | 21.09910 | 37117 ft | 482 kts | 156° |
| 2026-05-07 02:21 | 39.23289 | 21.13924 | 37117 ft | 481 kts | 156° |
| 2026-05-07 02:21 | 39.17353 | 21.17930 | 37114 ft | 482 kts | 156° |
| 2026-05-07 02:22 | 39.11405 | 21.21938 | 37113 ft | 484 kts | 156° |
| 2026-05-07 02:22 | 39.05428 | 21.25955 | 37112 ft | 485 kts | 156° |
| 2026-05-07 02:23 | 38.99451 | 21.29969 | 37110 ft | 485 kts | 156° |
| 2026-05-07 02:23 | 38.93463 | 21.33978 | 37110 ft | 485 kts | 156° |
| 2026-05-07 02:24 | 38.87480 | 21.37974 | 37121 ft | 485 kts | 157° |
| 2026-05-07 02:24 | 38.81471 | 21.41981 | 37102 ft | 488 kts | 157° |
| 2026-05-07 02:25 | 38.75442 | 21.45996 | 37105 ft | 488 kts | 157° |
| 2026-05-07 02:25 | 38.69415 | 21.50006 | 37120 ft | 488 kts | 157° |
| 2026-05-07 02:26 | 38.63435 | 21.53976 | 37096 ft | 488 kts | 157° |
| 2026-05-07 02:26 | 38.57406 | 21.57967 | 37100 ft | 488 kts | 157° |
| 2026-05-07 02:27 | 38.51379 | 21.61953 | 37114 ft | 488 kts | 157° |
| 2026-05-07 02:27 | 38.45346 | 21.65933 | 37099 ft | 488 kts | 157° |
| 2026-05-07 02:28 | 38.39314 | 21.69907 | 37105 ft | 488 kts | 157° |
| 2026-05-07 02:28 | 38.33253 | 21.73890 | 37097 ft | 492 kts | 157° |
| 2026-05-07 02:29 | 38.27166 | 21.77883 | 37101 ft | 492 kts | 157° |
| 2026-05-07 02:29 | 38.21078 | 21.81870 | 37105 ft | 493 kts | 157° |
| 2026-05-07 02:30 | 38.14978 | 21.85858 | 37087 ft | 493 kts | 157° |
| 2026-05-07 02:30 | 38.08844 | 21.89859 | 37108 ft | 497 kts | 158° |
| 2026-05-07 02:31 | 38.02678 | 21.93873 | 37114 ft | 498 kts | 158° |
| 2026-05-07 02:31 | 37.96520 | 21.97879 | 37107 ft | 498 kts | 158° |
| 2026-05-07 02:32 | 37.90352 | 22.01880 | 37100 ft | 498 kts | 158° |
| 2026-05-07 02:32 | 37.84168 | 22.05881 | 37115 ft | 501 kts | 158° |
| 2026-05-07 02:33 | 37.77941 | 22.09904 | 37114 ft | 503 kts | 158° |
| 2026-05-07 02:33 | 37.71707 | 22.13930 | 37121 ft | 503 kts | 158° |
| 2026-05-07 02:34 | 37.65470 | 22.17942 | 37110 ft | 504 kts | 158° |
| 2026-05-07 02:34 | 37.59209 | 22.21962 | 37118 ft | 506 kts | 158° |
| 2026-05-07 02:35 | 37.52916 | 22.25998 | 37121 ft | 507 kts | 158° |
| 2026-05-07 02:35 | 37.46625 | 22.30025 | 37116 ft | 507 kts | 158° |
| 2026-05-07 02:36 | 37.40325 | 22.34047 | 37116 ft | 507 kts | 158° |
| 2026-05-07 02:36 | 37.34053 | 22.38034 | 37114 ft | 511 kts | 158° |
| 2026-05-07 02:37 | 37.27690 | 22.42066 | 37107 ft | 512 kts | 159° |
| 2026-05-07 02:37 | 37.21323 | 22.46096 | 37110 ft | 513 kts | 158° |
| 2026-05-07 02:38 | 37.14957 | 22.50117 | 37104 ft | 512 kts | 158° |
| 2026-05-07 02:38 | 37.08585 | 22.54138 | 37113 ft | 515 kts | 158° |
| 2026-05-07 02:39 | 37.02164 | 22.58178 | 37101 ft | 517 kts | 158° |
| 2026-05-07 02:39 | 36.95735 | 22.62212 | 37097 ft | 517 kts | 158° |
| 2026-05-07 02:40 | 36.89299 | 22.66244 | 37098 ft | 517 kts | 158° |
| 2026-05-07 02:40 | 36.82849 | 22.70277 | 37093 ft | 520 kts | 158° |
| 2026-05-07 02:41 | 36.76365 | 22.74323 | 37091 ft | 522 kts | 158° |
| 2026-05-07 02:41 | 36.70926 | 22.77715 | 37088 ft | 522 kts | 158° |
| 2026-05-07 02:42 | 36.64480 | 22.81726 | 37088 ft | 520 kts | 158° |
| 2026-05-07 02:42 | 36.57995 | 22.85757 | 37093 ft | 523 kts | 158° |
| 2026-05-07 02:43 | 36.51453 | 22.89810 | 37085 ft | 526 kts | 158° |
| 2026-05-07 02:43 | 36.44899 | 22.93867 | 37076 ft | 526 kts | 158° |
| 2026-05-07 02:44 | 36.38346 | 22.97912 | 37097 ft | 526 kts | 158° |
| 2026-05-07 02:44 | 36.31784 | 23.01953 | 37087 ft | 528 kts | 158° |
| 2026-05-07 02:45 | 36.25191 | 23.06008 | 37085 ft | 530 kts | 158° |
| 2026-05-07 02:45 | 36.18584 | 23.10067 | 37087 ft | 530 kts | 158° |
| 2026-05-07 02:46 | 36.11985 | 23.14107 | 37082 ft | 528 kts | 157° |
| 2026-05-07 02:46 | 36.05401 | 23.18136 | 37093 ft | 527 kts | 157° |
| 2026-05-07 02:47 | 35.98821 | 23.22154 | 37089 ft | 528 kts | 157° |
| 2026-05-07 02:47 | 35.92231 | 23.26174 | 37105 ft | 528 kts | 157° |
| 2026-05-07 02:48 | 35.85646 | 23.30184 | 37085 ft | 528 kts | 158° |
| 2026-05-07 02:48 | 35.79043 | 23.34192 | 37098 ft | 531 kts | 158° |
| 2026-05-07 02:49 | 35.72389 | 23.38225 | 37101 ft | 534 kts | 158° |
| 2026-05-07 02:49 | 35.65722 | 23.42262 | 37099 ft | 534 kts | 158° |
| 2026-05-07 02:50 | 35.59063 | 23.46285 | 37102 ft | 532 kts | 157° |
| 2026-05-07 02:50 | 35.52424 | 23.50289 | 37094 ft | 533 kts | 157° |
| 2026-05-07 02:51 | 35.45757 | 23.54297 | 37111 ft | 534 kts | 157° |
| 2026-05-07 02:51 | 35.39125 | 23.58279 | 37096 ft | 534 kts | 157° |
| 2026-05-07 02:52 | 35.32450 | 23.62281 | 37088 ft | 534 kts | 157° |
| 2026-05-07 02:52 | 35.25767 | 23.66280 | 37107 ft | 537 kts | 158° |
| 2026-05-07 02:53 | 35.19042 | 23.70377 | 37105 ft | 541 kts | 156° |
| 2026-05-07 02:53 | 35.17913 | 23.71089 | 37106 ft | 541 kts | 155° |